Time;durP1;ratioP1;P1;durP2;ratioP2;P2;SDS_P1;SDS_P2;PMS_P1;PMS_P2;Temp;Humidity;BMP_temperature;BMP_pressure;BME280_temperature;BME280_humidity;BME280_pressure;Samples;Min_cycle;Max_cycle;Signal;HPM_P1;HPM_P2
2023/07/06 00:01:26;;;;;;;0.47;0.47;;;15.30;99.90;;;;;;5055886;28;20021;-80
2023/07/06 00:03:56;;;;;;;0.15;0.15;;;15.10;99.90;;;;;;5056121;28;20062;-83
2023/07/06 00:06:22;;;;;;;0.77;0.77;;;15.20;99.90;;;;;;5056204;28;20029;-83
2023/07/06 00:08:48;;;;;;;0.00;0.00;;;15.00;99.90;;;;;;5055993;28;20024;-80
2023/07/06 00:11:14;;;;;;;0.40;0.40;;;15.00;99.90;;;;;;5056151;28;20381;-82
2023/07/06 00:13:40;;;;;;;2.03;0.30;;;14.90;99.90;;;;;;5055810;28;20029;-80
2023/07/06 00:16:06;;;;;;;0.08;0.08;;;14.90;99.90;;;;;;5055741;28;20021;-83
2023/07/06 00:18:33;;;;;;;0.05;0.05;;;14.80;99.90;;;;;;5055792;28;20079;-78
2023/07/06 00:20:59;;;;;;;0.03;0.03;;;14.90;99.90;;;;;;5055922;28;20049;-80
2023/07/06 00:23:25;;;;;;;0.10;0.10;;;14.90;99.90;;;;;;5055834;28;20033;-83
2023/07/06 00:25:51;;;;;;;0.00;0.00;;;14.80;99.90;;;;;;5055810;28;20105;-80
2023/07/06 00:28:24;;;;;;;2.35;1.23;;;14.90;99.90;;;;;;5055755;28;20027;-76
2023/07/06 00:33:18;;;;;;;8.15;2.20;;;14.60;99.90;;;;;;5055724;28;20087;-83
2023/07/06 00:35:47;;;;;;;2.85;0.90;;;14.60;99.90;;;;;;5054358;28;20108;-83
2023/07/06 00:38:15;;;;;;;2.78;0.65;;;14.50;99.90;;;;;;5055330;28;20025;-77
2023/07/06 00:40:49;;;;;;;0.00;0.00;;;14.50;99.90;;;;;;5055608;28;20036;-81
2023/07/06 00:43:20;;;;;;;0.77;0.52;;;14.60;99.90;;;;;;5055199;28;20033;-80
2023/07/06 00:45:52;;;;;;;0.75;0.75;;;14.70;99.90;;;;;;5055109;28;20075;-79
2023/07/06 00:48:27;;;;;;;;;;;14.60;99.90;;;;;;5055810;28;20469;-80
2023/07/06 00:50:58;;;;;;;0.10;0.10;;;14.50;99.90;;;;;;5055417;28;19956;-82
2023/07/06 00:53:28;;;;;;;0.00;0.00;;;14.40;99.90;;;;;;5054018;28;20033;-78
2023/07/06 00:55:58;;;;;;;2.95;0.93;;;14.40;99.90;;;;;;5055371;28;20288;-82
2023/07/06 00:58:27;;;;;;;0.00;0.00;;;14.30;99.90;;;;;;5054612;28;20112;-80
2023/07/06 01:00:56;;;;;;;0.20;0.20;;;14.40;99.90;;;;;;5055341;28;20531;-81
2023/07/06 01:03:22;;;;;;;0.35;0.35;;;14.30;99.90;;;;;;5037155;28;20100;-79
2023/07/06 01:05:51;;;;;;;1.50;0.95;;;14.30;99.90;;;;;;5054988;28;20029;-81
2023/07/06 01:08:20;;;;;;;1.45;1.00;;;14.20;99.90;;;;;;5053805;28;20397;-80
2023/07/06 01:10:48;;;;;;;12.02;1.55;;;14.20;99.90;;;;;;5054545;28;20060;-81
2023/07/06 01:13:14;;;;;;;0.45;0.45;;;14.20;99.90;;;;;;5054825;28;20099;-81
2023/07/06 01:15:50;;;;;;;7.22;1.75;;;14.30;99.90;;;;;;5054739;28;20025;-81
2023/07/06 01:18:38;;;;;;;1.33;1.23;;;14.10;99.90;;;;;;5054897;28;20429;-79
2023/07/06 01:21:14;;;;;;;0.60;0.52;;;14.10;99.90;;;;;;5054683;28;20032;-81
2023/07/06 01:24:01;;;;;;;0.80;0.57;;;14.10;99.90;;;;;;5054699;28;20087;-81
2023/07/06 01:26:34;;;;;;;11.88;1.40;;;14.00;99.90;;;;;;5040305;28;20378;-82
2023/07/06 01:29:24;;;;;;;0.40;0.20;;;14.10;99.90;;;;;;5054533;28;20037;-81
2023/07/06 01:32:04;;;;;;;2.13;0.90;;;14.20;99.90;;;;;;5054470;28;20048;-76
2023/07/06 01:34:57;;;;;;;11.20;0.70;;;14.00;99.90;;;;;;5054539;28;20465;-80
2023/07/06 01:37:32;;;;;;;0.20;0.20;;;14.00;99.90;;;;;;5054398;28;20079;-81
2023/07/06 01:39:59;;;;;;;0.73;0.43;;;13.90;99.90;;;;;;5053166;28;20393;-82
2023/07/06 01:42:30;;;;;;;1.00;0.50;;;13.90;99.90;;;;;;5053896;28;20024;-81
2023/07/06 01:45:08;;;;;;;0.17;0.17;;;13.90;99.90;;;;;;5054107;28;20480;-80
2023/07/06 01:47:49;;;;;;;9.77;0.93;;;14.00;99.90;;;;;;5053215;28;20436;-82
2023/07/06 01:50:19;;;;;;;0.63;0.60;;;13.90;99.90;;;;;;5036536;28;20631;-81
2023/07/06 01:53:00;;;;;;;0.22;0.22;;;14.00;99.90;;;;;;5059568;28;20041;-82
2023/07/06 01:55:43;;;;;;;0.00;0.00;;;13.90;99.90;;;;;;5065213;28;20037;-82
2023/07/06 01:58:26;;;;;;;0.10;0.10;;;13.90;99.90;;;;;;5068565;28;20029;-82
2023/07/06 02:01:03;;;;;;;0.40;0.35;;;13.80;99.90;;;;;;5062155;28;20449;-82
2023/07/06 02:03:30;;;;;;;0.73;0.50;;;13.90;99.90;;;;;;5070714;28;20063;-81
2023/07/06 02:05:57;;;;;;;0.52;0.43;;;14.00;99.90;;;;;;5059659;28;20032;-80
2023/07/06 02:08:23;;;;;;;1.85;0.77;;;13.90;99.90;;;;;;5072783;28;20028;-83
2023/07/06 02:10:50;;;;;;;0.25;0.25;;;13.80;99.90;;;;;;5071410;28;20052;-81
2023/07/06 02:13:16;;;;;;;0.22;0.22;;;13.70;99.90;;;;;;5065887;28;20032;-79
2023/07/06 02:15:42;;;;;;;0.10;0.10;;;13.70;99.90;;;;;;5067839;28;20503;-80
2023/07/06 02:18:08;;;;;;;0.10;0.10;;;13.90;99.90;;;;;;5074343;28;20103;-80
2023/07/06 02:20:34;;;;;;;0.52;0.52;;;13.90;99.90;;;;;;5073963;28;20028;-82
2023/07/06 02:23:07;;;;;;;3.97;1.48;;;13.70;99.90;;;;;;5073293;28;20033;-79
2023/07/06 02:25:34;;;;;;;0.10;0.10;;;13.60;99.90;;;;;;5073434;28;20039;-80
2023/07/06 02:27:59;;;;;;;0.98;0.68;;;13.50;99.90;;;;;;5073214;28;20016;-75
2023/07/06 02:30:25;;;;;;;0.00;0.00;;;13.50;99.90;;;;;;5065595;28;20458;-83
2023/07/06 02:32:52;;;;;;;0.60;0.60;;;13.40;99.90;;;;;;5065900;28;20021;-78
2023/07/06 02:35:17;;;;;;;7.03;0.70;;;13.40;99.90;;;;;;5073355;28;20119;-80
2023/07/06 02:37:43;;;;;;;2.42;1.73;;;13.50;99.90;;;;;;5073090;28;20445;-77
2023/07/06 02:40:11;;;;;;;0.65;0.63;;;13.40;99.90;;;;;;5071689;28;20016;-77
2023/07/06 02:42:42;;;;;;;1.40;0.90;;;13.40;99.90;;;;;;5071768;28;20203;-76
2023/07/06 02:45:09;;;;;;;6.82;1.30;;;13.30;99.90;;;;;;5072987;28;20457;-79
2023/07/06 02:47:36;;;;;;;40.08;3.10;;;13.20;99.90;;;;;;5073134;28;20071;-76
2023/07/06 02:50:04;;;;;;;0.55;0.55;;;13.20;99.90;;;;;;5073025;28;20028;-79
2023/07/06 02:52:30;;;;;;;0.40;0.40;;;13.30;99.90;;;;;;5072767;28;20024;-78
2023/07/06 02:54:56;;;;;;;1.02;0.98;;;13.10;99.90;;;;;;5072874;28;20062;-77
2023/07/06 02:57:21;;;;;;;0.10;0.10;;;13.00;99.90;;;;;;5068305;28;20071;-79
2023/07/06 02:59:47;;;;;;;0.25;0.25;;;13.10;99.90;;;;;;5064685;28;20120;-75
2023/07/06 03:02:13;;;;;;;4.50;2.45;;;13.10;99.90;;;;;;5072344;28;20437;-82
2023/07/06 03:04:39;;;;;;;13.32;0.63;;;13.10;99.90;;;;;;5062971;28;20028;-76
2023/07/06 03:07:05;;;;;;;1.45;1.35;;;13.00;99.90;;;;;;5067200;28;20473;-81
2023/07/06 03:09:32;;;;;;;0.30;0.30;;;13.20;99.90;;;;;;5071139;28;20024;-80
2023/07/06 03:11:59;;;;;;;3.97;1.83;;;13.20;99.90;;;;;;5072715;28;20073;-78
2023/07/06 03:14:25;;;;;;;0.52;0.32;;;13.00;99.90;;;;;;5072326;28;20020;-80
2023/07/06 03:16:54;;;;;;;1.40;1.10;;;13.00;99.90;;;;;;5071076;28;20024;-78
2023/07/06 03:19:21;;;;;;;6.32;2.25;;;12.80;99.90;;;;;;5071228;28;20028;-81
2023/07/06 03:21:47;;;;;;;0.45;0.35;;;12.90;99.90;;;;;;5072455;28;20117;-78
2023/07/06 03:24:13;;;;;;;0.77;0.30;;;12.90;99.90;;;;;;5071012;28;20036;-78
2023/07/06 03:26:41;;;;;;;0.00;0.00;;;13.00;99.90;;;;;;5071417;28;20025;-82
2023/07/06 03:29:08;;;;;;;5.53;2.00;;;12.90;99.90;;;;;;5072557;28;20354;-78
2023/07/06 03:31:35;;;;;;;4.45;2.05;;;12.80;99.90;;;;;;5071539;28;20025;-82
2023/07/06 03:34:05;;;;;;;0.20;0.20;;;12.70;99.90;;;;;;5060567;28;20036;-82
2023/07/06 03:36:33;;;;;;;0.05;0.05;;;12.80;99.90;;;;;;5070933;28;20047;-82
2023/07/06 03:39:00;;;;;;;3.17;1.75;;;12.70;99.90;;;;;;5071713;28;20426;-79
2023/07/06 03:41:26;;;;;;;0.10;0.10;;;12.60;99.90;;;;;;5072160;28;20050;-82
2023/07/06 03:43:56;;;;;;;0.90;0.57;;;12.70;99.90;;;;;;5072134;28;20024;-80
2023/07/06 03:46:25;;;;;;;0.20;0.20;;;12.90;99.90;;;;;;5071101;28;20025;-81
2023/07/06 03:48:51;;;;;;;0.25;0.25;;;12.90;99.90;;;;;;5072237;28;20020;-80
2023/07/06 03:51:17;;;;;;;2.65;1.80;;;13.00;99.90;;;;;;5072337;28;20032;-80
2023/07/06 03:53:46;;;;;;;5.10;1.10;;;12.80;99.90;;;;;;5071886;28;20025;-83
2023/07/06 03:56:13;;;;;;;0.80;0.32;;;12.90;99.90;;;;;;5072380;28;20040;-82
2023/07/06 03:58:39;;;;;;;1.33;0.70;;;13.00;99.90;;;;;;5072069;28;20049;-79
2023/07/06 04:01:06;;;;;;;0.10;0.10;;;12.90;99.90;;;;;;5072095;28;20081;-82
2023/07/06 04:03:32;;;;;;;0.00;0.00;;;12.80;99.90;;;;;;5072030;28;20089;-81
2023/07/06 04:06:03;;;;;;;0.00;0.00;;;12.80;99.90;;;;;;5056870;28;20024;-82
2023/07/06 04:08:29;;;;;;;0.10;0.10;;;12.90;99.90;;;;;;5071758;28;20384;-82
2023/07/06 04:10:55;;;;;;;0.98;0.35;;;12.80;99.90;;;;;;5072133;28;20025;-83
2023/07/06 04:13:22;;;;;;;0.05;0.05;;;13.00;99.90;;;;;;5072097;28;20033;-83
2023/07/06 04:15:49;;;;;;;0.43;0.43;;;13.10;99.90;;;;;;5072082;28;20052;-77
2023/07/06 04:18:17;;;;;;;0.20;0.20;;;13.10;99.90;;;;;;5070879;28;20041;-82
2023/07/06 04:20:44;;;;;;;15.90;2.15;;;13.30;99.90;;;;;;5072088;28;20537;-80
2023/07/06 04:23:10;;;;;;;0.22;0.17;;;13.20;99.90;;;;;;5072209;28;20481;-79
2023/07/06 04:25:36;;;;;;;0.55;0.55;;;13.10;99.90;;;;;;5072061;28;20046;-80
2023/07/06 04:28:05;;;;;;;0.88;0.70;;;13.20;99.90;;;;;;5071789;28;20040;-77
2023/07/06 04:30:33;;;;;;;0.00;0.00;;;13.20;99.90;;;;;;5072098;28;20032;-82
2023/07/06 04:33:00;;;;;;;0.30;0.30;;;13.30;99.90;;;;;;5071815;28;20036;-81
2023/07/06 04:35:26;;;;;;;0.77;0.77;;;13.30;99.90;;;;;;5074679;28;20025;-82
2023/07/06 04:37:53;;;;;;;0.38;0.20;;;13.30;99.90;;;;;;5075398;28;20068;-82
2023/07/06 04:40:21;;;;;;;6.75;2.28;;;13.40;99.90;;;;;;5075513;28;20020;-81
2023/07/06 04:42:51;;;;;;;0.20;0.20;;;13.20;99.90;;;;;;5075519;28;20036;-82
2023/07/06 04:45:18;;;;;;;6.38;1.55;;;13.20;99.90;;;;;;5075324;28;20024;-80
2023/07/06 04:47:45;;;;;;;2.25;0.80;;;13.20;99.90;;;;;;5057671;28;20031;-81
2023/07/06 04:50:21;;;;;;;1.48;0.52;;;13.30;99.90;;;;;;5075068;28;20111;-79
2023/07/06 04:52:46;;;;;;;9.68;4.00;;;13.30;99.90;;;;;;5075386;28;20033;-81
2023/07/06 04:55:13;;;;;;;0.47;0.47;;;13.40;99.90;;;;;;5074980;28;20075;-82
2023/07/06 04:57:39;;;;;;;2.63;1.00;;;13.40;99.90;;;;;;5075322;28;20377;-81
2023/07/06 05:00:16;;;;;;;5.63;1.55;;;13.40;99.90;;;;;;5075170;28;20032;-81
2023/07/06 05:02:42;;;;;;;0.57;0.35;;;13.50;99.90;;;;;;5073446;28;20496;-81
2023/07/06 05:05:11;;;;;;;4.43;1.80;;;13.50;99.90;;;;;;5074627;28;20020;-79
2023/07/06 05:07:38;;;;;;;1.35;0.85;;;13.50;99.90;;;;;;5075280;28;20020;-81
2023/07/06 05:10:05;;;;;;;0.65;0.65;;;13.60;99.90;;;;;;5075182;28;20544;-78
2023/07/06 05:12:30;;;;;;;0.90;0.90;;;13.70;99.90;;;;;;5075001;28;20031;-81
2023/07/06 05:14:56;;;;;;;0.85;0.85;;;13.70;99.90;;;;;;5074767;28;20036;-78
2023/07/06 05:17:22;;;;;;;0.65;0.43;;;13.80;99.90;;;;;;5074706;28;20032;-77
2023/07/06 05:19:48;;;;;;;4.95;1.73;;;13.80;99.90;;;;;;5073213;28;20039;-79
2023/07/06 05:22:18;;;;;;;6.75;1.65;;;13.80;99.90;;;;;;5074852;28;20146;-79
2023/07/06 05:24:45;;;;;;;0.00;0.00;;;13.80;99.90;;;;;;5073433;28;20028;-81
2023/07/06 05:27:11;;;;;;;0.73;0.57;;;14.00;99.90;;;;;;5074649;28;20515;-80
2023/07/06 05:29:37;;;;;;;1.85;0.80;;;14.20;99.90;;;;;;5074522;28;20048;-74
2023/07/06 05:32:03;;;;;;;1.50;0.80;;;14.10;99.90;;;;;;5074595;28;20146;-77
2023/07/06 05:34:29;;;;;;;1.95;1.38;;;14.00;99.90;;;;;;5074152;28;20079;-79
2023/07/06 05:36:55;;;;;;;4.55;1.77;;;14.00;99.90;;;;;;5074396;28;20029;-79
2023/07/06 05:39:21;;;;;;;0.20;0.20;;;14.00;99.90;;;;;;5073286;28;20374;-78
2023/07/06 05:41:47;;;;;;;4.75;1.13;;;14.10;99.90;;;;;;5074165;28;20385;-80
2023/07/06 05:44:14;;;;;;;0.63;0.45;;;14.10;99.90;;;;;;5074417;28;20355;-81
2023/07/06 05:46:39;;;;;;;2.85;1.23;;;14.40;99.90;;;;;;5071957;28;20457;-78
2023/07/06 05:49:05;;;;;;;3.60;1.33;;;14.50;99.90;;;;;;5074121;28;20082;-77
2023/07/06 05:51:33;;;;;;;0.00;0.00;;;14.80;99.90;;;;;;5073745;28;20381;-79
2023/07/06 05:53:58;;;;;;;1.08;0.90;;;14.80;99.90;;;;;;5074367;28;20024;-80
2023/07/06 05:56:25;;;;;;;0.00;0.00;;;15.10;99.90;;;;;;5073993;28;20130;-79
2023/07/06 05:58:51;;;;;;;0.40;0.40;;;14.90;99.90;;;;;;5073933;28;20075;-78
2023/07/06 06:01:23;;;;;;;8.73;2.85;;;15.10;99.90;;;;;;5073833;28;20112;-74
2023/07/06 06:03:49;;;;;;;0.00;0.00;;;14.90;99.90;;;;;;5058533;28;20173;-80
2023/07/06 06:06:15;;;;;;;0.32;0.32;;;15.10;99.90;;;;;;5054178;28;20108;-84
2023/07/06 06:08:41;;;;;;;0.80;0.80;;;15.20;99.90;;;;;;5053894;28;20025;-84
2023/07/06 06:11:07;;;;;;;0.93;0.68;;;15.10;99.90;;;;;;5053794;28;20075;-81
2023/07/06 06:13:33;;;;;;;19.67;3.17;;;15.30;99.90;;;;;;5054274;28;20036;-81
2023/07/06 06:15:59;;;;;;;1.55;0.85;;;15.40;99.90;;;;;;5053391;28;20614;-82
2023/07/06 06:18:25;;;;;;;23.77;1.83;;;15.50;99.90;;;;;;5053342;28;20481;-79
2023/07/06 06:20:51;;;;;;;4.28;1.23;;;15.40;99.90;;;;;;5052224;28;20025;-78
2023/07/06 06:23:20;;;;;;;3.17;1.15;;;15.50;99.90;;;;;;5045752;28;20405;-79
2023/07/06 06:25:47;;;;;;;3.63;1.75;;;16.00;99.90;;;;;;5052273;28;20025;-80
2023/07/06 06:28:13;;;;;;;0.00;0.00;;;16.10;99.90;;;;;;5049355;28;20032;-83
2023/07/06 06:30:40;;;;;;;0.00;0.00;;;16.10;99.90;;;;;;5038960;28;20035;-82
2023/07/06 06:33:06;;;;;;;5.07;0.73;;;16.20;99.90;;;;;;5049980;28;20527;-82
2023/07/06 06:35:33;;;;;;;8.50;2.55;;;16.40;99.90;;;;;;5052245;28;20079;-81
2023/07/06 06:37:59;;;;;;;1.77;0.90;;;16.30;99.90;;;;;;5047888;28;20035;-82
2023/07/06 06:40:28;;;;;;;11.00;4.20;;;16.50;99.90;;;;;;5052323;28;20029;-79
2023/07/06 06:42:54;;;;;;;0.32;0.32;;;16.20;99.90;;;;;;5051958;28;20033;-82
2023/07/06 06:45:21;;;;;;;1.95;0.57;;;16.20;99.90;;;;;;5051273;28;20446;-80
2023/07/06 06:47:47;;;;;;;19.00;1.52;;;16.30;99.90;;;;;;5051399;28;20020;-81
2023/07/06 06:50:14;;;;;;;4.53;1.08;;;16.50;99.90;;;;;;5052183;28;20466;-80
2023/07/06 06:52:40;;;;;;;0.90;0.73;;;16.40;99.90;;;;;;5051838;28;20025;-77
2023/07/06 06:55:07;;;;;;;3.50;1.55;;;16.60;99.90;;;;;;5052082;28;20064;-80
2023/07/06 06:57:34;;;;;;;9.82;1.80;;;16.50;99.90;;;;;;5050878;28;20025;-81
2023/07/06 07:00:00;;;;;;;0.17;0.17;;;16.40;99.90;;;;;;5051216;28;20033;-81
2023/07/06 07:02:26;;;;;;;1.05;0.93;;;16.30;99.90;;;;;;5052507;28;20422;-80
2023/07/06 07:04:52;;;;;;;5.65;0.55;;;16.50;99.90;;;;;;5049115;28;20036;-82
2023/07/06 07:07:18;;;;;;;0.30;0.25;;;16.50;99.90;;;;;;5051475;28;20021;-82
2023/07/06 07:09:47;;;;;;;0.20;0.20;;;16.50;99.90;;;;;;5051821;28;20041;-83
2023/07/06 07:12:13;;;;;;;3.92;0.82;;;16.60;99.90;;;;;;5051093;28;20017;-83
2023/07/06 07:14:39;;;;;;;6.40;2.10;;;16.40;99.90;;;;;;5052818;28;20094;-83
2023/07/06 07:17:07;;;;;;;0.55;0.55;;;16.70;99.90;;;;;;5052182;28;20450;-82
2023/07/06 07:19:34;;;;;;;10.23;2.65;;;16.80;99.90;;;;;;5051325;28;20025;-75
2023/07/06 07:22:00;;;;;;;16.52;1.50;;;17.10;99.90;;;;;;5052239;28;20474;-78
2023/07/06 07:24:30;;;;;;;2.65;0.95;;;17.10;99.90;;;;;;5051944;28;20111;-78
2023/07/06 07:26:57;;;;;;;0.70;0.50;;;17.60;99.90;;;;;;5051827;28;20029;-79
2023/07/06 07:29:23;;;;;;;7.32;2.28;;;18.00;99.90;;;;;;5051139;28;20052;-79
2023/07/06 07:31:50;;;;;;;0.10;0.10;;;18.00;99.90;;;;;;5052261;28;20067;-78
2023/07/06 07:34:17;;;;;;;0.20;0.20;;;17.70;99.90;;;;;;5051076;28;20056;-78
2023/07/06 07:36:43;;;;;;;0.10;0.10;;;17.50;99.90;;;;;;5051918;28;20029;-79
2023/07/06 07:39:10;;;;;;;7.05;0.93;;;18.00;99.90;;;;;;5044992;28;20041;-79
2023/07/06 07:41:36;;;;;;;2.35;1.60;;;17.80;99.90;;;;;;5052144;28;20029;-77
2023/07/06 07:44:02;;;;;;;7.22;0.85;;;17.60;99.90;;;;;;5051199;28;20039;-78
2023/07/06 07:46:29;;;;;;;0.80;0.80;;;17.90;99.90;;;;;;5051353;28;20032;-77
2023/07/06 07:48:56;;;;;;;6.72;2.13;;;17.90;99.90;;;;;;5051671;28;20033;-78
2023/07/06 07:51:24;;;;;;;10.65;1.35;;;17.80;99.90;;;;;;5050642;28;20026;-77
2023/07/06 07:53:52;;;;;;;0.50;0.50;;;17.60;99.90;;;;;;5051828;28;20075;-79
2023/07/06 07:56:19;;;;;;;0.35;0.25;;;17.80;99.90;;;;;;5052118;28;20033;-78
2023/07/06 07:58:48;;;;;;;1.85;1.30;;;18.00;99.90;;;;;;5051807;28;20127;-79
2023/07/06 08:01:16;;;;;;;4.28;0.75;;;18.10;99.90;;;;;;5052082;28;20543;-78
2023/07/06 08:03:42;;;;;;;1.55;0.75;;;18.40;99.90;;;;;;5067011;28;20036;-79
2023/07/06 08:06:14;;;;;;;0.17;0.17;;;18.80;99.90;;;;;;5072682;28;20106;-78
2023/07/06 08:08:41;;;;;;;0.08;0.08;;;18.80;99.90;;;;;;5074696;28;20171;-77
2023/07/06 08:11:13;;;;;;;1.45;0.43;;;19.00;99.90;;;;;;5079371;28;20025;-79
2023/07/06 08:13:38;;;;;;;;;;;18.80;99.90;;;;;;5079470;28;20651;-79
2023/07/06 08:16:05;;;;;;;4.63;0.82;;;19.00;99.90;;;;;;5077663;28;19986;-79
2023/07/06 08:18:31;;;;;;;0.10;0.10;;;19.20;99.90;;;;;;5076548;28;20058;-80
2023/07/06 08:20:58;;;;;;;0.28;0.13;;;19.40;99.90;;;;;;5076407;28;20111;-80
2023/07/06 08:23:27;;;;;;;1.88;1.45;;;19.20;99.90;;;;;;5075767;28;20028;-79
2023/07/06 08:25:53;;;;;;;3.47;0.70;;;19.00;99.90;;;;;;5076216;28;20016;-77
2023/07/06 08:28:28;;;;;;;0.00;0.00;;;19.20;99.90;;;;;;5075784;28;20037;-80
2023/07/06 08:30:54;;;;;;;5.53;1.55;;;19.20;99.90;;;;;;5075653;28;20032;-79
2023/07/06 08:33:20;;;;;;;0.32;0.32;;;18.70;99.90;;;;;;5075467;28;20030;-80
2023/07/06 08:35:47;;;;;;;1.02;1.02;;;18.80;99.90;;;;;;5075775;28;20032;-78
2023/07/06 08:38:14;;;;;;;14.35;2.63;;;19.00;99.90;;;;;;5075428;28;20036;-79
2023/07/06 08:40:41;;;;;;;8.48;0.68;;;18.90;99.90;;;;;;5074520;28;20024;-80
2023/07/06 08:43:24;;;;;;;7.90;2.65;;;19.30;99.90;;;;;;5075121;28;20033;-80
2023/07/06 08:45:56;;;;;;;0.80;0.10;;;19.40;99.90;;;;;;5060609;28;20036;-80
2023/07/06 08:48:25;;;;;;;0.00;0.00;;;19.40;99.90;;;;;;5071363;28;20052;-76
2023/07/06 08:50:59;;;;;;;0.38;0.38;;;19.30;99.90;;;;;;5075495;28;20028;-79
2023/07/06 08:53:28;;;;;;;0.45;0.10;;;19.00;99.90;;;;;;5075130;28;20028;-78
2023/07/06 08:55:57;;;;;;;0.15;0.15;;;19.00;99.90;;;;;;5075395;28;20127;-79
2023/07/06 08:58:32;;;;;;;2.08;0.10;;;19.20;99.90;;;;;;5074807;28;20031;-80
2023/07/06 09:01:10;;;;;;;1.40;0.95;;;19.90;99.90;;;;;;5075201;28;20022;-80
2023/07/06 09:03:43;;;;;;;3.97;0.88;;;19.90;99.90;;;;;;5075093;28;20033;-78
2023/07/06 09:06:13;;;;;;;0.68;0.40;;;19.50;99.90;;;;;;5073948;28;20159;-79
2023/07/06 09:08:41;;;;;;;0.00;0.00;;;19.50;99.90;;;;;;5074909;28;20025;-80
2023/07/06 09:11:08;;;;;;;5.28;0.52;;;19.70;99.90;;;;;;5074414;28;20032;-77
2023/07/06 09:13:46;;;;;;;0.28;0.28;;;19.90;99.90;;;;;;5074849;28;20040;-79
2023/07/06 09:16:12;;;;;;;2.70;0.60;;;20.00;99.90;;;;;;5074580;28;20029;-79
2023/07/06 09:18:42;;;;;;;2.40;1.00;;;19.70;99.90;;;;;;5074889;28;20028;-80
2023/07/06 09:21:08;;;;;;;3.42;0.52;;;19.50;99.90;;;;;;5074411;28;20021;-81
2023/07/06 09:23:34;;;;;;;0.17;0.17;;;20.00;99.90;;;;;;5074894;28;20086;-80
2023/07/06 09:26:07;;;;;;;3.72;0.13;;;20.30;99.90;;;;;;5074304;28;20032;-76
2023/07/06 09:28:33;;;;;;;0.25;0.20;;;20.20;99.90;;;;;;5074903;28;20035;-78
2023/07/06 09:31:21;;;;;;;0.10;0.10;;;20.10;99.90;;;;;;5074543;28;20107;-79
2023/07/06 09:33:50;;;;;;;0.10;0.10;;;19.80;99.90;;;;;;5074630;28;20157;-80
2023/07/06 09:36:25;;;;;;;1.25;0.30;;;19.40;99.90;;;;;;5061080;28;20024;-77
2023/07/06 09:38:52;;;;;;;1.25;0.22;;;19.40;99.90;;;;;;5074533;28;20496;-76
2023/07/06 09:41:27;;;;;;;2.40;0.57;;;19.50;99.90;;;;;;5074036;28;20063;-79
2023/07/06 09:43:58;;;;;;;0.40;0.13;;;19.50;99.90;;;;;;5073309;28;20433;-79
2023/07/06 09:46:29;;;;;;;0.30;0.30;;;19.90;99.90;;;;;;5074002;28;20025;-78
2023/07/06 09:48:54;;;;;;;0.10;0.10;;;20.20;99.90;;;;;;5074618;28;20054;-77
2023/07/06 09:51:28;;;;;;;0.28;0.10;;;20.80;99.90;;;;;;5072721;28;20059;-80
2023/07/06 09:54:00;;;;;;;0.00;0.00;;;20.70;99.90;;;;;;5074422;28;20029;-77
2023/07/06 09:56:29;;;;;;;0.00;0.00;;;20.50;99.90;;;;;;5073737;28;20036;-80
2023/07/06 09:58:56;;;;;;;2.72;0.63;;;20.90;99.90;;;;;;5074129;28;20040;-79
2023/07/06 10:01:37;;;;;;;0.00;0.00;;;20.80;99.90;;;;;;5074081;28;20493;-81
2023/07/06 10:04:23;;;;;;;6.50;0.70;;;20.80;99.90;;;;;;5069398;28;20073;-79
2023/07/06 10:07:17;;;;;;;0.08;0.08;;;20.40;99.90;;;;;;5072726;28;20067;-80
2023/07/06 10:10:06;;;;;;;0.00;0.00;;;20.80;99.90;;;;;;5048978;28;20039;-80
2023/07/06 10:12:49;;;;;;;0.30;0.30;;;21.10;99.80;;;;;;5073668;28;20021;-77
2023/07/06 10:15:53;;;;;;;4.78;1.25;;;20.90;99.90;;;;;;5074033;28;20063;-76
2023/07/06 10:18:27;;;;;;;0.90;0.63;;;21.10;99.30;;;;;;5073569;28;20041;-78
2023/07/06 10:20:58;;;;;;;0.10;0.10;;;20.70;99.10;;;;;;5073668;28;20021;-80
2023/07/06 10:23:49;;;;;;;0.40;0.40;;;20.90;99.90;;;;;;5073392;28;20098;-79
2023/07/06 10:26:29;;;;;;;0.17;0.17;;;21.20;99.20;;;;;;5072449;28;20043;-77
2023/07/06 10:29:16;;;;;;;0.08;0.08;;;20.60;98.80;;;;;;5073891;28;20036;-78
2023/07/06 10:32:11;;;;;;;6.65;0.57;;;20.30;99.90;;;;;;5047483;28;20021;-78
2023/07/06 10:34:54;;;;;;;0.68;0.25;;;20.40;99.90;;;;;;5071801;28;20036;-77
2023/07/06 10:37:24;;;;;;;1.20;0.75;;;20.00;99.90;;;;;;5073332;28;20545;-79
2023/07/06 10:40:00;;;;;;;2.80;1.02;;;20.10;99.90;;;;;;5073391;28;20119;-77
2023/07/06 10:42:33;;;;;;;0.95;0.50;;;20.50;99.80;;;;;;5073012;28;20036;-78
2023/07/06 10:45:03;;;;;;;0.95;0.52;;;20.20;99.80;;;;;;5073185;28;20108;-79
2023/07/06 10:47:28;;;;;;;0.40;0.22;;;20.10;99.90;;;;;;5073058;28;20071;-79
2023/07/06 10:50:23;;;;;;;0.00;0.00;;;20.00;99.90;;;;;;5072903;28;20418;-77
2023/07/06 10:53:21;;;;;;;1.35;0.57;;;20.20;99.90;;;;;;5072514;28;20032;-80
2023/07/06 10:56:22;;;;;;;0.45;0.20;;;20.50;99.90;;;;;;5072879;28;20031;-78
2023/07/06 10:58:57;;;;;;;0.00;0.00;;;20.40;99.60;;;;;;5072868;28;20090;-78
2023/07/06 11:01:37;;;;;;;0.00;0.00;;;20.80;99.90;;;;;;5073007;28;20028;-79
2023/07/06 11:04:39;;;;;;;2.60;1.02;;;20.90;99.90;;;;;;5068376;28;20063;-78
2023/07/06 11:07:11;;;;;;;0.68;0.47;;;20.90;99.90;;;;;;5071250;28;20028;-80
2023/07/06 11:10:19;;;;;;;0.10;0.10;;;20.80;99.90;;;;;;5055501;28;20039;-80
2023/07/06 11:13:06;;;;;;;0.17;0.17;;;20.60;99.90;;;;;;5072497;28;20031;-80
2023/07/06 11:15:35;;;;;;;0.00;0.00;;;20.50;99.90;;;;;;5071483;28;20064;-79
2023/07/06 11:18:19;;;;;;;0.05;0.05;;;20.70;99.90;;;;;;5072634;28;20044;-80
2023/07/06 11:21:19;;;;;;;1.38;0.73;;;21.40;99.90;;;;;;5072485;28;20040;-81
2023/07/06 11:23:50;;;;;;;2.38;0.17;;;22.10;98.30;;;;;;5048778;28;20037;-79
2023/07/06 11:26:38;;;;;;;2.90;0.30;;;22.20;97.30;;;;;;5072751;28;20024;-81
2023/07/06 11:29:08;;;;;;;0.68;0.40;;;22.20;97.60;;;;;;5072576;28;20271;-80
2023/07/06 11:31:47;;;;;;;0.30;0.30;;;21.90;98.20;;;;;;5054977;28;20071;-81
2023/07/06 11:34:34;;;;;;;0.00;0.00;;;22.10;97.30;;;;;;5072159;28;20029;-79
2023/07/06 11:37:33;;;;;;;0.95;0.50;;;22.60;97.30;;;;;;5050214;28;20427;-84
2023/07/06 11:40:26;;;;;;;16.92;3.88;;;22.50;96.10;;;;;;5072385;28;20554;-81
2023/07/06 11:43:02;;;;;;;0.40;0.38;;;22.10;97.00;;;;;;5072050;28;20032;-79
2023/07/06 11:45:43;;;;;;;0.10;0.10;;;22.60;96.20;;;;;;5076268;28;20029;-79
2023/07/06 11:48:20;;;;;;;0.10;0.10;;;22.90;96.00;;;;;;5061260;28;20036;-76
2023/07/06 11:50:46;;;;;;;0.65;0.57;;;23.20;96.00;;;;;;5053845;28;20025;-74
2023/07/06 11:53:29;;;;;;;0.98;0.75;;;22.50;95.70;;;;;;5055960;28;20032;-77
2023/07/06 11:56:18;;;;;;;0.00;0.00;;;22.50;97.60;;;;;;5052338;28;20543;-78
2023/07/06 11:58:57;;;;;;;0.00;0.00;;;23.30;95.90;;;;;;5054530;28;20504;-79
2023/07/06 12:01:42;;;;;;;1.55;0.55;;;23.80;95.10;;;;;;5054673;28;20017;-78
2023/07/06 12:04:20;;;;;;;0.40;0.40;;;23.50;94.50;;;;;;5064782;28;20020;-79
2023/07/06 12:06:50;;;;;;;0.30;0.20;;;23.70;94.50;;;;;;5061806;28;20398;-79
2023/07/06 12:09:22;;;;;;;0.20;0.20;;;23.70;94.20;;;;;;5070911;28;20507;-78
2023/07/06 12:11:58;;;;;;;0.00;0.00;;;23.70;93.20;;;;;;5064148;28;20855;-79
2023/07/06 12:14:24;;;;;;;0.03;0.00;;;24.20;93.20;;;;;;5062350;28;20028;-79
2023/07/06 12:16:51;;;;;;;0.00;0.00;;;23.50;93.80;;;;;;5064962;28;20032;-78
2023/07/06 12:19:17;;;;;;;0.00;0.00;;;23.60;94.60;;;;;;5068840;28;20373;-79
2023/07/06 12:21:50;;;;;;;0.10;0.10;;;23.70;94.50;;;;;;5074191;28;20020;-79
2023/07/06 12:24:20;;;;;;;1.83;1.23;;;24.20;94.40;;;;;;5062797;28;20037;-79
2023/07/06 12:26:57;;;;;;;0.77;0.30;;;23.40;93.50;;;;;;5063762;28;20020;-78
2023/07/06 12:29:27;;;;;;;0.85;0.65;;;22.70;94.90;;;;;;5062564;28;20033;-75
2023/07/06 12:31:57;;;;;;;1.13;0.40;;;22.40;95.00;;;;;;5068748;28;20542;-75
2023/07/06 12:34:32;;;;;;;0.17;0.17;;;22.10;96.10;;;;;;5050286;28;20033;-74
2023/07/06 12:37:02;;;;;;;1.60;1.23;;;22.60;95.90;;;;;;5060146;28;20025;-74
2023/07/06 12:39:34;;;;;;;0.35;0.25;;;22.70;94.80;;;;;;5063938;28;20077;-74
2023/07/06 12:42:00;;;;;;;;;;;23.30;94.80;;;;;;5069749;28;20162;-74
2023/07/06 12:44:27;;;;;;;2.08;0.88;;;23.30;94.20;;;;;;5073187;28;19999;-74
2023/07/06 12:47:01;;;;;;;0.00;0.00;;;23.10;95.60;;;;;;5059207;28;20028;-74
2023/07/06 12:49:29;;;;;;;3.17;1.48;;;23.10;95.60;;;;;;5052648;28;20024;-75
2023/07/06 12:51:58;;;;;;;0.10;0.10;;;22.80;95.00;;;;;;5068352;28;20047;-75
2023/07/06 12:54:25;;;;;;;0.43;0.40;;;23.10;94.60;;;;;;5070889;28;20043;-75
2023/07/06 12:57:05;;;;;;;0.85;0.20;;;22.80;94.00;;;;;;5071562;28;20111;-75
2023/07/06 12:59:34;;;;;;;1.42;0.63;;;23.40;94.20;;;;;;5058628;28;20033;-74
2023/07/06 13:02:20;;;;;;;1.08;0.40;;;23.30;93.60;;;;;;5065506;28;20060;-75
2023/07/06 13:04:47;;;;;;;4.07;1.55;;;23.10;94.10;;;;;;5063678;28;20036;-74
2023/07/06 13:07:28;;;;;;;1.05;0.80;;;23.50;94.00;;;;;;5062538;28;20016;-76
2023/07/06 13:09:54;;;;;;;2.28;0.85;;;23.40;93.80;;;;;;5057943;28;20071;-75